Latest Weather Observations for Gladstone

IDQ60801

Issued at 3:32 pm EST Monday 27 April 2015 (issued every 30 minutes, with the page automatically refreshed every 10 minutes)

About weather observations | Map of weather stations | Latest weather observations for QLD | Other Formats
Station Details ID: 039123 Name: GLADSTONE RADAR Lat: -23.86 Lon: 151.26 Height: 74.5 m
Data from the previous 72 hours. | See also: Recent months at Gladstone
Date/Time
EST
Temp
°C
App
Temp
°C
Dew
Point
Rel
Hum
%
Delta-T
°C
Wind Press
QNH
hPa
Press
MSL
hPa
Rain
since 9 am
mm
Dir
 
Spd
km/h
Gust
km/h
Spd
kts
Gust
kts
27/03:30pm 24.6 21.5 9.0 37 8.5 ENE 15 22 8 12 1015.6 1015.3 0.0
27/03:00pm 25.1 21.4 8.1 34 9.1 ENE 17 24 9 13 1015.4 1015.1 0.0
27/02:30pm 26.4 22.7 6.4 28 10.5 ENE 15 22 8 12 1015.4 1015.1 0.0
27/02:00pm 26.7 24.7 8.6 32 9.9 NE 9 20 5 11 1015.5 1015.2 0.0
27/01:30pm 26.4 24.3 5.9 27 10.6 SSE 6 9 3 5 1015.6 1015.3 0.0
27/01:00pm 26.8 24.7 6.8 28 10.6 S 7 15 4 8 1016.0 1015.7 0.0
27/12:30pm 25.2 22.5 5.4 28 10.1 SSE 9 17 5 9 1016.3 1016.0 0.0
27/12:00pm 24.9 22.7 6.1 30 9.7 SSW 7 19 4 10 1016.8 1016.5 0.0
27/11:30am 24.8 22.5 7.4 33 9.2 SSE 9 19 5 10 1017.3 1017.0 0.0
27/11:00am 23.0 20.1 6.7 35 8.4 SSW 11 22 6 12 1017.8 1017.5 0.0
27/10:30am 22.2 19.4 6.8 37 7.9 SW 11 19 6 10 1018.2 1017.9 0.0
27/10:00am 20.5 16.5 6.8 41 6.9 SSW 17 35 9 19 1018.5 1018.2 0.0
27/09:30am 19.8 16.4 7.5 45 6.3 SW 15 30 8 16 1018.7 1018.4 0.0
27/09:00am 18.4 15.3 7.2 48 5.6 SSW 13 24 7 13 1018.9 1018.6 0.0
27/08:30am 17.4 13.3 6.3 48 5.5 SW 17 30 9 16 1018.8 1018.5 0.0
27/08:00am 16.3 13.0 6.2 51 4.9 SW 13 22 7 12 1018.5 1018.2 0.0
27/07:30am 15.7 11.3 5.0 49 5.1 SW 17 24 9 13 1018.4 1018.1 0.0
27/07:00am 15.1 11.5 4.8 50 4.8 SSW 13 19 7 10 1018.4 1018.1 0.0
27/06:30am 14.5 10.8 4.5 51 4.6 SW 13 22 7 12 1018.0 1017.7 0.0
27/06:00am 14.1 10.3 4.1 51 4.6 SW 13 20 7 11 1017.8 1017.5 0.0
27/05:30am 14.0 10.6 4.0 51 4.6 SW 11 17 6 9 1017.4 1017.1 0.0
27/05:00am 14.7 11.3 4.1 49 4.9 SW 11 17 6 9 1017.0 1016.7 0.0
27/04:30am 13.5 10.4 3.8 52 4.4 SW 9 13 5 7 1016.7 1016.4 0.0
27/04:00am 14.3 11.6 3.5 48 4.9 WSW 7 9 4 5 1016.7 1016.4 0.0
27/03:30am 14.6 11.5 3.4 47 5.1 SW 9 13 5 7 1016.5 1016.2 0.0
27/03:00am 15.6 12.1 3.7 45 5.5 SW 11 19 6 10 1016.6 1016.3 0.0
27/02:30am 16.2 12.4 3.9 44 5.7 SSW 13 20 7 11 1016.9 1016.6 0.0
27/02:00am 16.4 12.6 3.8 43 5.8 SSW 13 19 7 10 1017.1 1016.8 0.0
27/01:30am 16.8 12.9 3.5 41 6.2 SSW 13 19 7 10 1017.1 1016.8 0.0
27/01:00am 17.0 12.3 3.3 40 6.3 SW 17 32 9 17 1017.4 1017.1 0.0
27/12:30am 17.1 12.8 3.1 39 6.5 SW 15 24 8 13 1017.4 1017.1 0.0
27/12:00am 17.7 12.9 2.8 37 6.8 SW 17 28 9 15 1017.5 1017.2 0.0
 
Date/Time
EST
Temp
°C
App
Temp
°C
Dew
Point
Rel
Hum
%
Delta-T
°C
Wind Press
QNH
hPa
Press
MSL
hPa
Rain
since 9 am
mm
Dir
 
Spd
km/h
Gust
km/h
Spd
kts
Gust
kts
26/11:30pm 18.2 13.4 2.5 35 7.2 SW 17 26 9 14 1017.5 1017.2 0.0
26/11:00pm 18.6 14.1 2.0 33 7.6 SW 15 22 8 12 1017.6 1017.3 0.0
26/10:30pm 19.2 14.7 2.1 32 7.9 SW 15 22 8 12 1017.6 1017.3 0.0
26/10:00pm 19.9 15.3 1.8 30 8.3 SW 15 24 8 13 1017.5 1017.2 0.0
26/09:30pm 20.4 15.5 1.8 29 8.6 SSW 17 24 9 13 1017.4 1017.1 0.0
26/09:00pm 20.7 16.2 2.0 29 8.7 SSW 15 22 8 12 1016.9 1016.6 0.0
26/08:30pm 20.3 15.4 2.2 30 8.4 SSW 17 24 9 13 1016.6 1016.3 0.0
26/08:00pm 20.8 16.3 2.1 29 8.7 SW 15 24 8 13 1016.2 1015.9 0.0
26/07:30pm 20.6 16.5 2.0 29 8.6 SW 13 22 7 12 1015.6 1015.3 0.0
26/07:00pm 21.3 17.6 2.1 28 9.0 WSW 11 19 6 10 1015.1 1014.8 0.0
26/06:30pm 21.8 18.2 3.0 29 9.0 SW 11 17 6 9 1014.6 1014.3 0.0
26/06:00pm 22.4 19.7 5.8 34 8.4 SSW 9 13 5 7 1014.1 1013.7 0.0
26/05:30pm 22.8 21.4 8.9 41 7.5 SE 6 9 3 5 1013.6 1013.2 0.0
26/05:00pm 24.9 21.4 1.1 21 11.2 SSW 9 20 5 11 1013.1 1012.7 0.0
26/04:30pm 25.9 21.9 0.5 19 11.9 SW 11 20 6 11 1012.7 1012.3 0.0
26/04:00pm 27.0 22.5 -0.1 17 12.7 WSW 13 24 7 13 1012.3 1011.9 0.0
26/03:30pm 27.8 24.1 -0.3 16 13.2 WSW 9 22 5 12 1012.2 1011.8 0.0
26/03:00pm 28.3 24.6 0.1 16 13.4 WSW 9 17 5 9 1012.2 1011.8 0.0
26/02:30pm 28.4 24.4 0.2 16 13.4 WSW 11 24 6 13 1012.0 1011.6 0.0
26/02:00pm 28.4 24.9 1.0 17 13.2 W 9 19 5 10 1012.0 1011.6 0.0
26/01:30pm 28.2 24.5 2.4 19 12.7 SW 11 20 6 11 1012.2 1011.8 0.0
26/01:00pm 28.0 24.9 3.7 21 12.3 WSW 9 19 5 10 1012.4 1012.0 0.0
26/12:30pm 26.3 23.0 2.3 21 11.7 SW 9 20 5 11 1012.7 1012.3 0.0
26/12:00pm 26.3 23.1 2.9 22 11.5 WSW 9 20 5 11 1012.9 1012.5 0.0
26/11:30am 25.5 21.9 2.9 23 11.0 SW 11 19 6 10 1013.2 1012.8 0.0
26/11:00am 25.1 22.1 4.3 26 10.4 SW 9 19 5 10 1013.6 1013.2 0.0
26/10:30am 24.9 22.1 5.2 28 10.0 W 9 20 5 11 1014.1 1013.7 0.0
26/10:00am 23.4 20.6 5.3 31 9.1 SSW 9 19 5 10 1014.3 1014.0 0.0
26/09:30am 22.1 18.4 4.2 31 8.8 SW 13 24 7 13 1014.5 1014.2 0.0
26/09:00am 21.1 15.8 2.9 30 8.6 SW 20 33 11 18 1014.5 1014.2 0.0
26/08:30am 20.3 16.0 3.1 32 8.1 SW 15 24 8 13 1014.5 1014.2 0.0
26/08:00am 19.6 15.5 2.5 32 7.9 SW 13 22 7 12 1014.5 1014.2 0.0
26/07:30am 18.9 14.7 1.9 32 7.8 SW 13 22 7 12 1014.1 1013.7 0.0
26/07:00am 18.4 14.7 2.3 34 7.4 SW 11 19 6 10 1013.8 1013.4 0.0
26/06:30am 18.5 14.5 2.8 35 7.3 SW 13 22 7 12 1013.4 1013.0 0.0
26/06:00am 19.0 14.8 3.6 36 7.3 SW 15 24 8 13 1013.0 1012.6 0.0
26/05:30am 19.5 15.2 5.2 39 7.0 SW 17 26 9 14 1012.4 1012.0 0.0
26/05:00am 19.8 15.2 6.5 42 6.7 SW 20 33 11 18 1011.9 1011.5 0.0
26/04:30am 20.0 16.2 9.9 52 5.4 SW 20 35 11 19 1011.6 1011.2 0.0
26/04:00am 20.2 18.8 14.6 70 3.3 SW 15 28 8 15 1011.5 1011.1 0.0
26/03:30am 19.1 18.7 16.1 83 1.8 WSW 13 19 7 10 1011.3 1010.9 0.0
26/03:00am 19.7 19.9 16.7 83 1.8 WSW 11 19 6 10 1011.3 1010.9 0.0
26/02:30am 20.1 20.4 16.9 82 1.9 WSW 11 17 6 9 1011.2 1010.8 0.0
26/02:00am 20.2 20.9 17.0 82 2.0 WSW 9 15 5 8 1011.1 1010.7 0.0
26/01:30am 20.3 21.8 17.7 85 1.6 WSW 6 7 3 4 1011.3 1010.9 0.0
26/01:00am 20.4 22.0 17.8 85 1.6 WSW 6 9 3 5 1011.0 1010.6 0.0
26/12:30am 20.6 22.2 18.2 86 1.5 W 7 9 4 5 1011.1 1010.7 0.0
26/12:00am 21.1 22.9 18.7 86 1.5 WNW 7 13 4 7 1011.2 1010.8 0.0
 
Date/Time
EST
Temp
°C
App
Temp
°C
Dew
Point
Rel
Hum
%
Delta-T
°C
Wind Press
QNH
hPa
Press
MSL
hPa
Rain
since 9 am
mm
Dir
 
Spd
km/h
Gust
km/h
Spd
kts
Gust
kts
25/11:30pm 21.9 23.6 19.3 85 1.7 NW 9 11 5 6 1011.2 1010.8 0.0
25/11:00pm 21.4 23.3 18.6 84 1.8 W 6 9 3 5 1011.6 1011.2 0.0
25/10:30pm 21.5 23.2 18.1 81 2.1 W 6 9 3 5 1011.7 1011.3 0.0
25/10:00pm 21.7 23.5 18.3 81 2.1 W 6 9 3 5 1011.8 1011.4 0.0
25/09:30pm 22.0 23.5 18.0 78 2.5 WNW 7 9 4 5 1011.8 1011.4 0.0
25/09:00pm 22.5 23.6 18.1 76 2.8 NW 9 15 5 8 1011.8 1011.4 0.0
25/08:30pm 22.7 23.5 17.2 71 3.4 NW 9 13 5 7 1011.8 1011.4 0.0
25/08:00pm 23.0 23.8 17.2 70 3.6 NW 9 15 5 8 1011.6 1011.2 0.0
25/07:30pm 23.6 23.7 16.4 64 4.4 NW 11 15 6 8 1011.2 1010.8 0.0
25/07:00pm 23.6 24.3 17.1 67 4.0 NNW 9 15 5 8 1010.7 1010.3 0.0
25/06:30pm 23.7 24.3 16.7 65 4.3 N 9 15 5 8 1010.2 1009.8 0.0
25/06:00pm 24.1 23.5 13.6 52 6.2 NNE 9 15 5 8 1009.9 1009.5 0.0
25/05:30pm 24.7 24.7 14.2 52 6.2 NE 7 13 4 7 1009.6 1009.2 0.0
25/05:00pm 25.9 24.7 12.7 44 7.7 NNE 11 19 6 10 1009.2 1008.8 0.0
25/04:30pm 27.0 26.0 13.4 43 8.0 NE 11 20 6 11 1009.0 1008.6 0.0
25/04:00pm 27.7 25.9 13.3 41 8.5 NE 15 20 8 11 1008.8 1008.4 0.0
25/03:30pm 28.5 27.6 13.6 40 8.9 NE 11 19 6 10 1008.8 1008.4 0.0
25/03:00pm 28.5 27.2 13.6 40 8.9 NE 13 22 7 12 1008.9 1008.5 0.0
25/02:30pm 29.0 28.3 15.5 44 8.3 NE 13 22 7 12 1008.8 1008.4 0.0
25/02:00pm 28.5 27.8 17.4 51 7.0 NE 17 24 9 13 1009.1 1008.7 0.0
25/01:30pm 28.7 28.5 17.6 51 7.0 NE 15 26 8 14 1009.3 1008.9 0.0
25/01:00pm 28.4 27.4 16.7 49 7.3 NE 17 26 9 14 1009.7 1009.3 0.0
25/12:30pm 29.9 29.1 16.0 43 8.7 NE 15 22 8 12 1010.0 1009.6 0.0
25/12:00pm 29.3 28.0 11.4 33 10.4 N 9 15 5 8 1010.3 1009.9 0.0
25/11:30am 27.9 27.3 13.4 40 8.6 NNW 9 17 5 9 1010.7 1010.3 0.0
25/11:00am 28.2 28.7 15.1 44 8.0 WSW 6 11 3 6 1011.3 1010.9 0.0
25/10:30am 27.1 27.6 15.1 47 7.3 WSW 6 9 3 5 1011.7 1011.3 0.0
25/10:00am 26.3 27.4 16.5 54 6.1 W 6 11 3 6 1011.9 1011.5 0.0
25/09:30am 25.0 26.1 17.0 61 5.0 WSW 7 11 4 6 1012.2 1011.8 0.0
25/09:00am 22.7 23.5 16.3 67 3.9 WSW 7 11 4 6 1012.3 1011.9 0.0
25/08:30am 21.3 22.0 16.0 72 3.2 WSW 7 11 4 6 1012.3 1011.9 0.0
25/08:00am 19.7 20.4 16.0 79 2.2 WSW 7 11 4 6 1012.0 1011.6 0.0
25/07:30am 18.6 18.8 14.7 78 2.3 WSW 7 11 4 6 1011.8 1011.4 0.0
25/07:00am 18.9 18.8 15.0 78 2.3 WSW 9 15 5 8 1011.5 1011.1 0.0
25/06:30am 18.8 18.6 14.7 77 2.4 WSW 9 13 5 7 1011.1 1010.7 0.0
25/06:00am 18.9 18.7 14.6 76 2.5 WSW 9 11 5 6 1010.8 1010.4 0.0
25/05:30am 18.8 18.5 14.5 76 2.5 WSW 9 13 5 7 1010.7 1010.3 0.0
25/05:00am 18.8 18.5 14.5 76 2.5 WSW 9 13 5 7 1010.5 1010.1 0.0
25/04:30am 18.6 18.4 14.7 78 2.3 WSW 9 15 5 8 1010.4 1010.0 0.0
25/04:00am 18.9 19.1 14.8 77 2.4 WSW 7 9 4 5 1010.1 1009.7 0.0
25/03:30am 19.2 19.5 15.1 77 2.4 WSW 7 9 4 5 1010.3 1009.9 0.0
25/03:00am 19.3 19.6 15.0 76 2.5 WSW 7 9 4 5 1010.4 1010.0 0.0
25/02:30am 18.6 18.3 14.5 77 2.4 WSW 9 9 5 5 1010.5 1010.1 0.0
25/02:00am 19.1 18.9 14.6 75 2.6 WSW 9 13 5 7 1010.6 1010.2 0.0
25/01:30am 20.4 20.6 14.7 70 3.3 W 7 7 4 4 1010.6 1010.2 0.0
25/01:00am 20.6 20.9 14.9 70 3.4 W 7 9 4 5 1010.8 1010.4 0.0
25/12:30am 20.6 20.9 14.9 70 3.4 WSW 7 9 4 5 1011.0 1010.6 0.0
25/12:00am 20.8 21.1 15.1 70 3.4 WSW 7 9 4 5 1011.2 1010.8 0.0
 
Date/Time
EST
Temp
°C
App
Temp
°C
Dew
Point
Rel
Hum
%
Delta-T
°C
Wind Press
QNH
hPa
Press
MSL
hPa
Rain
since 9 am
mm
Dir
 
Spd
km/h
Gust
km/h
Spd
kts
Gust
kts
24/11:30pm 20.7 21.2 15.5 72 3.1 W 7 9 4 5 1011.2 1010.8 0.0
24/11:00pm 20.9 21.6 16.1 74 2.9 WNW 7 9 4 5 1011.0 1010.6 0.0
24/10:30pm 21.0 21.8 16.4 75 2.8 WNW 7 9 4 5 1011.1 1010.7 0.0
24/10:00pm 21.3 21.8 16.5 74 2.9 NW 9 9 5 5 1011.3 1010.9 0.0
24/09:30pm 21.3 21.3 15.2 68 3.6 WNW 9 13 5 7 1011.3 1010.9 0.0
24/09:00pm 22.1 22.1 15.2 65 4.1 NW 9 13 5 7 1011.2 1010.8 0.0
24/08:30pm 22.0 22.1 15.4 66 3.9 NNW 9 11 5 6 1011.0 1010.6 0.0
24/08:00pm 22.3 22.4 15.6 66 4.0 NNW 9 11 5 6 1010.8 1010.4 0.0
24/07:30pm 22.5 23.0 15.6 65 4.1 NNW 7 9 4 5 1010.5 1010.1 0.0
24/07:00pm 22.1 22.7 15.7 67 3.9 N 7 9 4 5 1010.1 1009.7 0.0
24/06:30pm 22.0 22.3 15.1 65 4.1 NNE 7 11 4 6 1009.7 1009.3 0.0
24/06:00pm 22.5 22.8 15.1 63 4.4 NNE 7 13 4 7 1009.4 1009.0 0.0
24/05:30pm 23.2 23.3 14.5 58 5.2 NNE 7 13 4 7 1009.1 1008.7 0.0
24/05:00pm 23.9 23.7 14.6 56 5.5 NNE 9 15 5 8 1008.8 1008.4 0.0
24/04:30pm 24.2 23.4 14.0 53 6.0 NNE 11 20 6 11 1008.6 1008.2 0.0
24/04:00pm 25.7 25.0 14.2 49 6.9 NE 11 19 6 10 1008.4 1008.0 0.0

Other Formats:

Comma delimited format used in spreadsheet applications
http://www.bom.gov.au/fwo/IDQ60801/IDQ60801.94380.axf

JavaScript Object Notation format (JSON) in row-major order
http://www.bom.gov.au/fwo/IDQ60801/IDQ60801.94380.json